Inge Skaarud Karlsen

Log

Date Distance Time Pace Comments Action
03/23/16 276m 1:00.0 1:48.6 View workout
03/23/16 5,000m 20:36.5 2:03.6

res: 5

View workout
03/23/16 100m 0:17.3 1:26.5

res: 8

View workout
03/23/16 100m 0:17.2 1:26.0

res: 9

View workout
03/23/16 408m 3:05.6 3:47.4 View workout
03/23/16 500m 1:38.6 1:38.6

res: 10

View workout
03/23/16 511m 2:34.8 2:31.4 View workout
03/23/16 2,000m 7:39.5 1:54.8

res: 6

View workout
03/23/16 1,025m 4:58.6 2:25.6 View workout
03/21/16 2,000m 8:11.7 2:02.9 View workout
03/21/16 91m 0:36.4 3:20.0 View workout
03/21/16 100m 0:17.5 1:27.5 View workout
03/21/16 1,038m 5:05.8 2:27.3 View workout
03/20/16 487m 1:52.4 1:55.4 View workout
03/20/16 463m 2:17.1 2:28.0 View workout
03/20/16 5,000m 22:40.6 2:16.0 View workout
03/19/16 10,000m 44:20.3 2:13.0

hr: 168 | res: 4

View workout
03/19/16 329m 1:00.0 1:31.1

res: 10

View workout
03/19/16 848m 4:18.3 2:32.2 View workout
03/18/16 1,097m 4:00.0 1:49.3

res: 6

View workout